createdAt,value
2023-10-20T00:00:19.925Z,19.03
2023-10-20T00:02:48.657Z,19.97
2023-10-20T00:05:18.508Z,19.67
2023-10-20T00:07:47.237Z,19.67
2023-10-20T00:10:15.625Z,19.77
2023-10-20T00:12:44.210Z,20.00
2023-10-20T00:15:16.378Z,19.60
2023-10-20T00:17:45.994Z,20.47
2023-10-20T00:20:14.683Z,20.57
2023-10-20T00:22:44.999Z,21.33
2023-10-20T00:25:13.643Z,21.63
2023-10-20T00:27:42.819Z,20.97
2023-10-20T00:30:12.647Z,21.67
2023-10-20T00:32:42.464Z,21.73
2023-10-20T00:35:14.875Z,21.17
2023-10-20T00:37:45.143Z,22.53
2023-10-20T00:40:14.061Z,20.73
2023-10-20T00:42:42.713Z,23.30
2023-10-20T00:45:12.436Z,22.13
2023-10-20T00:47:42.212Z,23.50
2023-10-20T00:50:13.200Z,23.50
2023-10-20T00:52:43.232Z,23.43
2023-10-20T00:55:13.891Z,23.17
2023-10-20T00:57:42.478Z,23.90
2023-10-20T01:00:12.058Z,23.27
2023-10-20T01:02:40.657Z,22.43
2023-10-20T01:05:10.103Z,22.63
2023-10-20T01:07:38.720Z,23.10
2023-10-20T01:10:07.851Z,21.57
2023-10-20T01:12:38.220Z,21.87
2023-10-20T01:15:07.732Z,23.50
2023-10-20T01:17:36.917Z,23.00
2023-10-20T01:20:07.336Z,22.77
2023-10-20T01:22:36.273Z,23.10
2023-10-20T01:25:06.659Z,21.50
2023-10-20T01:27:35.034Z,22.40
2023-10-20T01:30:03.428Z,22.97
2023-10-20T01:32:31.854Z,23.10
2023-10-20T01:35:00.391Z,21.50
2023-10-20T01:37:29.082Z,22.47
2023-10-20T01:39:57.730Z,22.97
2023-10-20T01:42:27.615Z,22.83
2023-10-20T01:44:55.948Z,21.87
2023-10-20T01:47:24.379Z,21.23
2023-10-20T01:49:53.024Z,22.90
2023-10-20T01:52:21.467Z,21.80
2023-10-20T01:54:49.804Z,22.53
2023-10-20T01:57:18.446Z,22.87
2023-10-20T01:59:49.686Z,21.50
2023-10-20T02:02:18.539Z,22.27
2023-10-20T02:04:46.975Z,21.33
2023-10-20T02:07:15.342Z,20.87
2023-10-20T02:09:43.957Z,22.50
2023-10-20T02:12:12.587Z,20.80
2023-10-20T02:14:40.897Z,21.03
2023-10-20T02:17:11.530Z,21.37
2023-10-20T02:19:39.905Z,21.33
2023-10-20T02:22:08.248Z,21.80
2023-10-20T02:24:37.490Z,20.57
2023-10-20T02:27:06.673Z,21.00
2023-10-20T02:29:35.275Z,20.13
2023-10-20T02:32:03.975Z,18.80
2023-10-20T02:34:34.614Z,19.53
2023-10-20T02:37:04.113Z,19.83
2023-10-20T02:39:32.535Z,20.33
2023-10-20T02:42:00.868Z,19.00
2023-10-20T02:44:31.515Z,19.27
2023-10-20T02:47:00.175Z,18.70
2023-10-20T02:49:28.527Z,19.80
2023-10-20T02:51:58.415Z,18.83
2023-10-20T02:54:26.750Z,19.50
2023-10-20T02:56:57.315Z,18.60
2023-10-20T02:59:25.777Z,18.87
2023-10-20T03:01:57.339Z,19.27
2023-10-20T03:04:26.050Z,18.40
2023-10-20T03:06:54.580Z,18.80
2023-10-20T03:09:24.511Z,18.33
2023-10-20T03:11:52.841Z,18.83
2023-10-20T03:14:21.233Z,19.50
2023-10-20T03:16:49.662Z,19.23
2023-10-20T03:19:17.998Z,18.13
2023-10-20T03:21:46.595Z,18.57
2023-10-20T03:24:14.938Z,18.73
2023-10-20T03:26:45.346Z,18.00
2023-10-20T03:29:13.959Z,18.37
2023-10-20T03:31:43.335Z,18.30
2023-10-20T03:34:11.731Z,17.90
2023-10-20T03:36:40.327Z,17.87
2023-10-20T03:39:21.543Z,17.17
2023-10-20T03:41:52.079Z,17.63
2023-10-20T03:44:22.628Z,17.97
2023-10-20T03:46:51.311Z,18.30
2023-10-20T03:49:20.122Z,16.90
2023-10-20T03:51:50.801Z,17.07
2023-10-20T03:54:20.354Z,17.73
2023-10-20T03:56:48.845Z,17.63
2023-10-20T03:59:18.724Z,17.23
2023-10-20T04:01:47.282Z,16.47
2023-10-20T04:04:18.038Z,16.97
2023-10-20T04:06:46.866Z,17.13
2023-10-20T04:09:15.356Z,18.07
2023-10-20T04:11:43.746Z,16.83
2023-10-20T04:14:13.674Z,17.53
2023-10-20T04:16:43.722Z,17.80
2023-10-20T04:19:16.110Z,16.53
2023-10-20T04:21:45.636Z,18.00
2023-10-20T04:24:14.082Z,16.90
2023-10-20T04:26:44.015Z,16.80
2023-10-20T04:29:35.237Z,17.87
2023-10-20T04:32:23.174Z,17.00
2023-10-20T04:35:09.493Z,16.63
2023-10-20T04:37:55.763Z,17.07
2023-10-20T04:40:41.621Z,17.17
2023-10-20T04:43:27.658Z,17.17
2023-10-20T04:46:16.985Z,17.07
2023-10-20T04:49:17.699Z,16.70
2023-10-20T04:51:59.959Z,15.60
2023-10-20T04:54:44.770Z,16.63
2023-10-20T04:57:40.322Z,16.33
2023-10-20T05:00:27.691Z,16.10
2023-10-20T05:03:15.989Z,15.60
2023-10-20T05:05:54.678Z,15.23
2023-10-20T05:08:24.984Z,15.40
2023-10-20T05:10:55.490Z,15.10
2023-10-20T05:13:24.813Z,15.47
2023-10-20T05:15:53.483Z,16.07
2023-10-20T05:18:22.187Z,16.10
2023-10-20T05:20:51.980Z,15.03
2023-10-20T05:23:20.564Z,15.27
2023-10-20T05:25:49.473Z,15.90
2023-10-20T05:28:19.033Z,14.37
2023-10-20T05:30:48.034Z,14.33
2023-10-20T05:33:17.112Z,14.43
2023-10-20T05:35:46.337Z,14.00
2023-10-20T05:38:16.240Z,13.80
2023-10-20T05:40:44.903Z,13.00
2023-10-20T05:43:13.289Z,13.00
2023-10-20T05:45:42.205Z,12.70
2023-10-20T05:48:11.031Z,12.70
2023-10-20T05:50:41.042Z,11.67
2023-10-20T05:53:12.268Z,12.03
2023-10-20T05:55:42.353Z,11.47
2023-10-20T05:58:10.733Z,12.87
2023-10-20T06:00:59.340Z,11.87
2023-10-20T06:03:27.549Z,9.93
2023-10-20T06:06:00.330Z,10.67
2023-10-20T06:08:30.302Z,10.40
2023-10-20T06:11:04.283Z,10.23
2023-10-20T06:13:34.309Z,9.60
2023-10-20T06:16:10.913Z,9.20
2023-10-20T06:18:40.653Z,9.07
2023-10-20T06:21:09.714Z,9.57
2023-10-20T06:23:38.417Z,10.70
2023-10-20T06:26:08.322Z,10.00
2023-10-20T06:28:36.701Z,9.47
2023-10-20T06:31:26.237Z,8.80
2023-10-20T06:34:01.675Z,8.27
2023-10-20T06:36:31.303Z,8.23
2023-10-20T06:38:59.592Z,7.60
2023-10-20T06:41:29.763Z,8.07
2023-10-20T06:43:58.331Z,6.90
2023-10-20T06:46:28.570Z,6.80
2023-10-20T06:48:58.122Z,6.40
2023-10-20T06:51:27.428Z,6.40
2023-10-20T06:53:58.033Z,8.13
2023-10-20T06:56:28.666Z,6.13
2023-10-20T06:58:58.831Z,5.90
2023-10-20T07:01:28.409Z,6.17
2023-10-20T07:03:57.079Z,6.00
2023-10-20T07:06:25.482Z,6.17
2023-10-20T07:08:54.084Z,5.60
2023-10-20T07:11:25.594Z,5.30
2023-10-20T07:13:56.479Z,4.80
2023-10-20T07:16:26.320Z,4.67
2023-10-20T07:18:55.888Z,4.20
2023-10-20T07:21:24.353Z,4.90
2023-10-20T07:23:53.572Z,4.70
2023-10-20T07:26:22.388Z,4.17
2023-10-20T07:28:50.783Z,4.00
2023-10-20T07:34:12.322Z,3.90
2023-10-20T07:36:41.839Z,4.00
2023-10-20T07:39:10.988Z,3.83
2023-10-20T07:41:39.620Z,4.07
2023-10-20T07:44:10.429Z,4.60
2023-10-20T07:46:38.796Z,4.07
2023-10-20T07:49:07.091Z,4.30
2023-10-20T07:51:36.785Z,4.00
2023-10-20T07:54:05.600Z,4.10
2023-10-20T07:56:33.992Z,4.13
2023-10-20T07:59:02.421Z,4.00
2023-10-20T08:01:31.009Z,4.10
2023-10-20T08:03:59.906Z,3.80
2023-10-20T08:06:29.066Z,4.33
2023-10-20T08:08:59.298Z,3.87
2023-10-20T08:11:27.619Z,3.83
2023-10-20T08:13:56.564Z,3.80
2023-10-20T08:16:25.216Z,4.07
2023-10-20T08:18:54.427Z,3.80
2023-10-20T08:21:27.291Z,6.53
2023-10-20T08:23:55.762Z,3.90
2023-10-20T08:26:25.393Z,4.37
2023-10-20T08:28:53.981Z,4.00
2023-10-20T08:31:23.491Z,4.10
2023-10-20T08:33:53.500Z,3.90
2023-10-20T08:36:23.043Z,4.00
2023-10-20T08:38:52.561Z,3.80
2023-10-20T08:41:22.899Z,3.57
2023-10-20T08:43:53.235Z,3.60
2023-10-20T08:46:23.855Z,81.57
2023-10-20T08:48:52.259Z,4.10
2023-10-20T08:51:20.834Z,3.80
2023-10-20T08:53:50.000Z,3.57
2023-10-20T08:56:18.399Z,3.27
2023-10-20T08:58:50.019Z,3.60
2023-10-20T09:01:19.815Z,3.87
2023-10-20T09:03:50.451Z,3.10
2023-10-20T09:06:18.890Z,2.87
2023-10-20T09:08:51.821Z,2.87
2023-10-20T09:11:26.153Z,2.90
2023-10-20T09:13:54.552Z,3.07
2023-10-20T09:16:24.507Z,2.73
2023-10-20T09:18:54.964Z,2.70
2023-10-20T09:21:25.662Z,2.80
2023-10-20T09:23:58.056Z,2.67
2023-10-20T09:26:27.803Z,2.70
2023-10-20T09:28:58.571Z,2.60
2023-10-20T09:31:31.330Z,2.87
2023-10-20T09:33:59.916Z,2.67
2023-10-20T09:36:28.805Z,2.50
2023-10-20T09:38:59.143Z,2.77
2023-10-20T09:41:29.247Z,2.50
2023-10-20T09:44:07.285Z,2.30
2023-10-20T09:46:48.901Z,2.50
2023-10-20T09:49:17.925Z,2.30
2023-10-20T09:51:47.524Z,1.90
2023-10-20T09:54:16.767Z,1.97
2023-10-20T09:56:46.718Z,1.80
2023-10-20T09:59:19.760Z,2.80
2023-10-20T10:01:50.184Z,2.10
2023-10-20T10:04:25.216Z,2.00
2023-10-20T10:06:54.293Z,1.90
2023-10-20T10:09:23.062Z,1.90
2023-10-20T10:11:52.398Z,1.53
2023-10-20T10:14:21.736Z,1.77
2023-10-20T10:16:55.231Z,1.57
2023-10-20T10:19:26.271Z,1.70
2023-10-20T10:21:55.920Z,1.90
2023-10-20T10:24:25.094Z,1.73
2023-10-20T10:26:56.027Z,1.30
2023-10-20T10:29:39.515Z,1.33
2023-10-20T10:32:14.193Z,1.70
2023-10-20T10:34:43.342Z,1.80
2023-10-20T10:37:11.926Z,1.57
2023-10-20T10:39:40.337Z,1.83
2023-10-20T10:42:09.096Z,1.73
2023-10-20T10:44:41.186Z,1.80
2023-10-20T10:47:20.541Z,1.80
2023-10-20T10:49:53.276Z,1.60
2023-10-20T10:52:21.676Z,1.77
2023-10-20T10:54:54.216Z,1.43
2023-10-20T10:57:22.707Z,1.43
2023-10-20T10:59:51.607Z,1.60
2023-10-20T11:02:20.389Z,2.90
2023-10-20T11:04:50.276Z,2.63
2023-10-20T11:07:18.850Z,1.90
2023-10-20T11:09:47.546Z,1.70
2023-10-20T11:12:18.954Z,1.37
2023-10-20T11:14:50.177Z,1.30
2023-10-20T11:17:18.784Z,1.40
2023-10-20T11:19:47.582Z,1.33
2023-10-20T11:22:18.248Z,1.50
2023-10-20T11:24:53.886Z,1.43
2023-10-20T11:27:23.889Z,1.40
2023-10-20T11:29:59.079Z,1.80
2023-10-20T11:32:28.352Z,1.50
2023-10-20T11:34:57.065Z,2.43
2023-10-20T11:37:27.474Z,1.23
2023-10-20T11:39:57.122Z,1.27
2023-10-20T11:42:26.057Z,1.53
2023-10-20T11:44:56.674Z,1.20
2023-10-20T11:47:25.374Z,1.10
2023-10-20T11:49:55.957Z,2.10
2023-10-20T11:52:25.334Z,1.60
2023-10-20T11:54:55.340Z,1.33
2023-10-20T11:57:23.824Z,1.40
2023-10-20T11:59:53.133Z,1.47
2023-10-20T12:02:24.063Z,1.47
2023-10-20T12:04:52.725Z,1.50
2023-10-20T12:07:21.600Z,1.23
2023-10-20T12:09:51.016Z,1.30
2023-10-20T12:12:21.186Z,2.80
2023-10-20T12:14:49.891Z,1.70
2023-10-20T12:17:19.021Z,1.20
2023-10-20T12:19:50.088Z,1.67
2023-10-20T12:22:19.517Z,1.30
2023-10-20T12:24:47.898Z,1.50
2023-10-20T12:27:16.362Z,1.30
2023-10-20T12:29:46.160Z,1.60
2023-10-20T12:32:14.859Z,1.70
2023-10-20T12:34:43.729Z,1.30
2023-10-20T12:37:12.174Z,1.23
2023-10-20T12:39:41.643Z,1.40
2023-10-20T12:42:10.239Z,1.80
2023-10-20T12:44:40.084Z,1.80
2023-10-20T12:47:10.172Z,1.47
2023-10-20T12:49:38.622Z,1.60
2023-10-20T12:52:07.604Z,1.70
2023-10-20T12:54:36.144Z,1.77
2023-10-20T12:57:04.728Z,1.70
2023-10-20T12:59:33.202Z,1.70
2023-10-20T13:02:01.645Z,2.00
2023-10-20T13:04:31.804Z,1.70
2023-10-20T13:07:01.755Z,1.40
2023-10-20T13:09:30.373Z,1.60
2023-10-20T13:11:59.607Z,1.97
2023-10-20T13:14:28.190Z,1.13
2023-10-20T13:16:58.437Z,1.53
2023-10-20T13:19:27.134Z,1.83
2023-10-20T13:21:58.582Z,1.63
2023-10-20T13:24:28.232Z,1.50
2023-10-20T13:26:56.795Z,1.60
2023-10-20T13:29:25.202Z,1.30
2023-10-20T13:31:53.774Z,1.63
2023-10-20T13:34:22.405Z,1.30
2023-10-20T13:36:50.843Z,1.23
2023-10-20T13:39:31.504Z,1.07
2023-10-20T13:42:00.113Z,1.60
2023-10-20T13:44:28.503Z,1.30
2023-10-20T13:46:56.895Z,1.80
2023-10-20T13:49:25.197Z,1.77
2023-10-20T13:51:53.598Z,1.50
2023-10-20T13:54:23.357Z,1.20
2023-10-20T14:00:21.612Z,1.50
2023-10-20T14:02:50.185Z,1.40
2023-10-20T14:05:20.475Z,1.10
2023-10-20T14:07:49.097Z,1.70
2023-10-20T14:10:19.966Z,1.70
2023-10-20T14:12:48.466Z,1.90
2023-10-20T14:15:17.149Z,1.60
2023-10-20T14:17:45.694Z,1.80
2023-10-20T14:20:14.171Z,1.90
2023-10-20T14:22:42.868Z,1.80
2023-10-20T14:25:11.802Z,1.80
2023-10-20T14:27:41.580Z,1.87
2023-10-20T14:30:10.370Z,1.90
2023-10-20T14:32:38.884Z,2.10
2023-10-20T14:35:08.200Z,2.27
2023-10-20T14:37:36.771Z,2.50
2023-10-20T14:40:05.430Z,3.17
2023-10-20T14:42:33.868Z,2.70
2023-10-20T14:45:04.647Z,3.03
2023-10-20T14:47:33.345Z,2.50
2023-10-20T14:50:02.306Z,2.80
2023-10-20T14:52:30.715Z,2.77
2023-10-20T14:54:59.457Z,2.90
2023-10-20T14:57:29.068Z,3.53
2023-10-20T14:59:57.660Z,3.53
2023-10-20T15:02:28.143Z,3.40
2023-10-20T15:04:59.684Z,3.20
2023-10-20T15:07:29.817Z,3.90
2023-10-20T15:09:58.286Z,3.30
2023-10-20T15:12:27.567Z,4.10
2023-10-20T15:14:56.239Z,4.73
2023-10-20T15:17:24.794Z,3.87
2023-10-20T15:19:57.230Z,5.40
2023-10-20T15:22:26.433Z,4.57
2023-10-20T15:24:55.605Z,4.60
2023-10-20T15:27:24.186Z,4.30
2023-10-20T15:29:52.691Z,4.70
2023-10-20T15:32:22.920Z,3.93
2023-10-20T15:34:55.088Z,4.90
2023-10-20T15:37:26.281Z,4.80
2023-10-20T15:40:04.123Z,4.43
2023-10-20T15:42:43.902Z,4.90
2023-10-20T15:45:12.923Z,6.07
2023-10-20T15:47:41.514Z,5.10
2023-10-20T15:50:13.407Z,5.40
2023-10-20T15:52:42.223Z,5.07
2023-10-20T15:55:10.663Z,4.73
2023-10-20T15:57:40.931Z,4.90
2023-10-20T16:00:10.259Z,5.23
2023-10-20T16:02:39.996Z,5.03
2023-10-20T16:05:11.309Z,4.97
2023-10-20T16:07:41.131Z,5.90
2023-10-20T16:10:10.839Z,4.90
2023-10-20T16:12:41.402Z,5.80
2023-10-20T16:15:14.153Z,6.47
2023-10-20T16:17:42.633Z,5.90
2023-10-20T16:20:14.840Z,5.27
2023-10-20T16:22:45.958Z,6.60
2023-10-20T16:25:14.318Z,6.30
2023-10-20T16:27:44.092Z,6.60
2023-10-20T16:30:14.066Z,6.23
2023-10-20T16:32:44.581Z,6.60
2023-10-20T16:35:13.607Z,7.50
2023-10-20T16:37:42.228Z,8.07
2023-10-20T16:40:15.478Z,7.03
2023-10-20T16:42:44.640Z,6.70
2023-10-20T16:45:13.383Z,6.37
2023-10-20T16:47:44.297Z,8.07
2023-10-20T16:50:12.760Z,7.43
2023-10-20T16:52:41.267Z,7.20
2023-10-20T16:55:10.182Z,6.93
2023-10-20T16:57:40.313Z,7.00
2023-10-20T17:00:09.240Z,7.50
2023-10-20T17:02:37.962Z,9.37
2023-10-20T17:05:07.257Z,9.97
2023-10-20T17:07:35.762Z,9.40
2023-10-20T17:10:06.040Z,9.87
2023-10-20T17:12:34.465Z,11.47
2023-10-20T17:15:05.225Z,10.07
2023-10-20T17:17:34.147Z,9.30
2023-10-20T17:20:02.842Z,9.93
2023-10-20T17:22:31.477Z,8.87
2023-10-20T17:24:59.864Z,9.87
2023-10-20T17:27:28.208Z,9.17
2023-10-20T17:29:57.670Z,9.47
2023-10-20T17:32:27.851Z,9.73
2023-10-20T17:34:56.280Z,10.93
2023-10-20T17:37:24.971Z,11.47
2023-10-20T17:39:53.599Z,11.17
2023-10-20T17:42:24.085Z,10.53
2023-10-20T17:44:52.561Z,11.57
2023-10-20T17:47:21.150Z,13.27
2023-10-20T17:49:51.860Z,12.80
2023-10-20T17:52:20.324Z,11.53
2023-10-20T17:54:49.010Z,13.60
2023-10-20T17:57:17.499Z,14.10
2023-10-20T17:59:46.104Z,14.13
2023-10-20T18:02:14.646Z,18.47
2023-10-20T18:04:43.174Z,16.30
2023-10-20T18:07:13.569Z,15.10
2023-10-20T18:09:41.961Z,13.23
2023-10-20T18:12:10.438Z,12.73
2023-10-20T18:14:39.142Z,13.00
2023-10-20T18:17:07.601Z,13.30
2023-10-20T18:19:36.378Z,14.67
2023-10-20T18:22:05.144Z,18.33
2023-10-20T18:24:35.211Z,15.80
2023-10-20T18:27:04.136Z,13.97
2023-10-20T18:29:32.751Z,12.90
2023-10-20T18:32:01.171Z,12.23
2023-10-20T18:34:29.815Z,11.87
2023-10-20T18:36:58.511Z,11.40
2023-10-20T18:39:27.299Z,11.40
2023-10-20T18:41:57.458Z,11.37
2023-10-20T18:44:26.165Z,12.47
2023-10-20T18:46:54.845Z,13.20
2023-10-20T18:49:24.420Z,13.77
2023-10-20T18:51:54.023Z,12.57
2023-10-20T18:54:22.424Z,13.77
2023-10-20T18:56:51.064Z,15.60
2023-10-20T18:59:20.877Z,14.80
2023-10-20T19:01:49.574Z,14.90
2023-10-20T19:04:17.950Z,15.40
2023-10-20T19:06:47.171Z,14.80
2023-10-20T19:09:15.577Z,15.03
2023-10-20T19:11:44.376Z,14.90
2023-10-20T19:14:12.816Z,15.33
2023-10-20T19:16:42.818Z,16.63
2023-10-20T19:19:13.662Z,15.27
2023-10-20T19:21:45.330Z,15.77
2023-10-20T19:24:15.281Z,15.30
2023-10-20T19:26:45.241Z,14.43
2023-10-20T19:29:13.938Z,14.80
2023-10-20T19:31:43.751Z,15.67
2023-10-20T19:34:12.403Z,15.10
2023-10-20T19:36:41.137Z,14.27
2023-10-20T19:39:10.651Z,13.83
2023-10-20T19:41:40.893Z,13.90
2023-10-20T19:44:10.450Z,14.07
2023-10-20T19:47:11.288Z,14.43
2023-10-20T19:49:41.486Z,13.17
2023-10-20T19:52:09.992Z,13.50
2023-10-20T19:54:39.165Z,13.13
2023-10-20T19:57:10.759Z,12.90
2023-10-20T19:59:40.060Z,13.13
2023-10-20T20:02:08.924Z,13.80
2023-10-20T20:04:37.365Z,14.37
2023-10-20T20:07:07.308Z,14.37
2023-10-20T20:09:35.863Z,14.63
2023-10-20T20:12:06.701Z,17.17
2023-10-20T20:14:35.448Z,14.67
2023-10-20T20:17:04.434Z,14.33
2023-10-20T20:19:32.832Z,13.43
2023-10-20T20:22:01.194Z,13.20
2023-10-20T20:24:30.898Z,13.27
2023-10-20T20:27:02.125Z,14.20
2023-10-20T20:29:30.908Z,13.70
2023-10-20T20:31:59.300Z,13.17
2023-10-20T20:34:28.057Z,12.93
2023-10-20T20:36:56.654Z,14.20
2023-10-20T20:39:26.517Z,13.43
2023-10-20T20:41:56.538Z,13.10
2023-10-20T20:44:25.059Z,13.30
2023-10-20T20:46:53.433Z,13.67
2023-10-20T20:49:22.716Z,13.07
2023-10-20T20:51:51.655Z,13.00
2023-10-20T20:54:21.257Z,12.87
2023-10-20T20:56:49.900Z,11.67
2023-10-20T20:59:20.062Z,11.83
2023-10-20T21:01:48.513Z,11.73
2023-10-20T21:04:17.276Z,11.27
2023-10-20T21:06:48.449Z,10.40
2023-10-20T21:09:16.901Z,10.73
2023-10-20T21:11:45.308Z,10.63
2023-10-20T21:14:13.967Z,11.10
2023-10-20T21:16:43.677Z,10.10
2023-10-20T21:19:12.269Z,10.30
2023-10-20T21:21:40.601Z,10.07
2023-10-20T21:24:09.365Z,9.70
2023-10-20T21:26:38.025Z,9.23
2023-10-20T21:29:06.823Z,9.53
2023-10-20T21:31:37.417Z,9.23
2023-10-20T21:34:07.349Z,8.80
2023-10-20T21:36:35.618Z,13.70
2023-10-20T21:39:07.003Z,8.17
2023-10-20T21:41:35.440Z,17.37
2023-10-20T21:44:05.990Z,16.60
2023-10-20T21:46:35.655Z,14.37
2023-10-20T21:49:04.086Z,10.97
2023-10-20T21:51:34.018Z,14.33
2023-10-20T21:54:03.073Z,19.10
2023-10-20T21:56:31.870Z,11.23
2023-10-20T21:59:00.233Z,15.80
2023-10-20T22:01:28.828Z,15.80
2023-10-20T22:03:57.418Z,14.40
2023-10-20T22:06:26.015Z,12.30
2023-10-20T22:08:55.948Z,13.70
2023-10-20T22:11:24.641Z,10.97
2023-10-20T22:13:52.981Z,17.17
2023-10-20T22:16:21.364Z,11.80
2023-10-20T22:18:50.861Z,11.90
2023-10-20T22:21:19.528Z,11.60
2023-10-20T22:23:48.317Z,9.97
2023-10-20T22:26:18.049Z,8.90
2023-10-20T22:28:46.588Z,8.20
2023-10-20T22:31:15.267Z,7.60
2023-10-20T22:33:43.686Z,7.17
2023-10-20T22:36:12.367Z,7.27
2023-10-20T22:38:40.975Z,7.60
2023-10-20T22:41:09.290Z,7.00
2023-10-20T22:43:39.238Z,6.67
2023-10-20T22:46:07.822Z,6.83
2023-10-20T22:48:36.511Z,7.17
2023-10-20T22:51:05.142Z,6.67
2023-10-20T22:53:34.385Z,7.87
2023-10-20T22:56:02.676Z,7.43
2023-10-20T22:58:31.119Z,6.13
2023-10-20T23:01:00.794Z,6.60
2023-10-20T23:03:29.639Z,6.73
2023-10-20T23:05:58.075Z,7.10
2023-10-20T23:08:27.992Z,7.70
2023-10-20T23:10:56.329Z,7.00
2023-10-20T23:13:24.811Z,6.50
2023-10-20T23:15:53.386Z,7.97
2023-10-20T23:18:23.527Z,6.40
2023-10-20T23:20:55.643Z,6.10
2023-10-20T23:23:24.128Z,5.70
2023-10-20T23:25:52.506Z,5.73
2023-10-20T23:28:21.188Z,6.00
2023-10-20T23:30:50.849Z,5.37
2023-10-20T23:33:19.622Z,4.77
2023-10-20T23:35:49.860Z,5.83
2023-10-20T23:38:19.591Z,5.53
2023-10-20T23:40:50.372Z,5.37
2023-10-20T23:43:18.652Z,5.97
2023-10-20T23:45:47.881Z,6.07
2023-10-20T23:48:16.324Z,5.10
2023-10-20T23:50:44.805Z,5.13
2023-10-20T23:53:14.921Z,5.40
2023-10-20T23:55:44.030Z,4.60
2023-10-20T23:58:12.589Z,4.60
